»·PEaware :: N219SW KRIV-KLBB

N219SW :: KRIV-KLBB

FLIGHT INFORMATION

Flight Status: Arrived
Operator: Privately registered:
United States
More flights under this callsign
Pilot: Scott W. (15065)
Aircraft: BOMBARDIER BD-100 CHALLENGER 300
(CL30)
More flights by this aircraft type
Origin: KRIV March ARB
United States
Destination: KLBB Lubbock Intl
United States
More flights between these airports :: More routes between these airports
Route: SKYES3 TRM J169 KOFFA J65 TCS J166 CME LBB
File this flight plan on PilotEdge
Remarks:
Altitude:
(Current/Filed)
39,000ft
Speed:
(Current/Filed)
460kts
Departed: 09-Sep-17 04:05 PM
Arrived: 09-Sep-17 06:06 PM
Distance/Time
Traveled:
769nm/2:00
Distance/Time
To Go:
Arrived

Flight Plot

Page will automatically refresh every two minutes.

Flight plan parsing failed; only flown route is shown


Map Options




Map Legend


Flown Route
Filed Route
Departure Airport
Arrival Airport
Navaid (VOR, NDB)
Fix

Horizontal Profiles

Position Reports

Time Latitude Longitude Heading Altitude Ground
Speed
09-Sep-17 15:49 33.871077 -117.246964 61 1541ft 0kts
09-Sep-17 15:50 33.871077 -117.246964 61 1541ft 0kts
09-Sep-17 15:51 33.871077 -117.246964 61 1541ft 0kts
09-Sep-17 15:52 33.871077 -117.246964 61 1541ft 0kts
09-Sep-17 15:53 33.871077 -117.246964 61 1541ft 0kts
09-Sep-17 15:54 33.871077 -117.246964 61 1541ft 0kts
09-Sep-17 15:55 33.871077 -117.246964 61 1541ft 0kts
09-Sep-17 15:56 33.871077 -117.246964 61 1541ft 0kts
09-Sep-17 15:57 33.871077 -117.246964 61 1541ft 0kts
09-Sep-17 15:58 33.871077 -117.246964 61 1541ft 0kts
09-Sep-17 15:59 33.871077 -117.246964 61 1541ft 0kts
09-Sep-17 16:00 33.871077 -117.246964 61 1541ft 0kts
09-Sep-17 16:01 33.871077 -117.246964 61 1541ft 0kts
09-Sep-17 16:02 33.871077 -117.246964 61 1541ft 0kts
09-Sep-17 16:03 33.871077 -117.246964 61 1541ft 0kts
09-Sep-17 16:04 33.870495 -117.247107 195 1541ft 12kts
09-Sep-17 16:05 33.867871 -117.246773 172 1541ft 0kts
09-Sep-17 16:06 33.867870 -117.246773 172 1540ft 0kts
09-Sep-17 16:07 33.865807 -117.246489 194 1540ft 0kts
09-Sep-17 16:08 33.865411 -117.247012 263 1540ft 0kts
09-Sep-17 16:09 33.869782 -117.251779 329 1540ft 103kts
09-Sep-17 16:10 33.910300 -117.282480 323 3400ft 220kts
09-Sep-17 16:11 33.948293 -117.350001 258 5018ft 322kts
09-Sep-17 16:12 33.887781 -117.377232 163 4990ft 255kts
09-Sep-17 16:13 33.821565 -117.351061 166 6419ft 258kts
09-Sep-17 16:14 33.752817 -117.327934 167 9539ft 270kts
09-Sep-17 16:15 33.676986 -117.304350 164 12674ft 306kts
09-Sep-17 16:16 33.590972 -117.255034 145 13012ft 378kts
09-Sep-17 16:17 33.505786 -117.185233 145 12974ft 358kts
09-Sep-17 16:18 33.426538 -117.119782 145 12960ft 342kts
09-Sep-17 16:19 33.393936 -117.026662 81 13698ft 347kts
09-Sep-17 16:20 33.418530 -116.911669 75 16451ft 365kts
09-Sep-17 16:21 33.449437 -116.795330 74 19232ft 371kts
09-Sep-17 16:22 33.482300 -116.677877 74 22004ft 375kts
09-Sep-17 16:23 33.517004 -116.554684 74 23035ft 419kts
09-Sep-17 16:24 33.555932 -116.416824 74 23029ft 455kts
09-Sep-17 16:25 33.594620 -116.279667 74 23017ft 433kts
09-Sep-17 16:26 33.624010 -116.142323 94 23033ft 418kts
09-Sep-17 16:27 33.619944 -116.003915 96 23029ft 418kts
09-Sep-17 16:28 33.613617 -115.863821 96 23023ft 423kts
09-Sep-17 16:29 33.606710 -115.722817 96 24098ft 425kts
09-Sep-17 16:30 33.599550 -115.582015 97 25972ft 427kts
09-Sep-17 16:31 33.592203 -115.441372 97 27970ft 423kts
09-Sep-17 16:32 33.584796 -115.302856 98 30019ft 416kts
09-Sep-17 16:33 33.577380 -115.167318 99 32043ft 407kts
09-Sep-17 16:34 33.569964 -115.035391 98 34051ft 394kts
09-Sep-17 16:35 33.562692 -114.907150 98 35981ft 378kts
09-Sep-17 16:36 33.555737 -114.785735 99 37787ft 356kts
09-Sep-17 16:37 33.549017 -114.671389 99 38998ft 344kts
09-Sep-17 16:38 33.541887 -114.553494 98 39026ft 369kts
09-Sep-17 16:39 33.534230 -114.427490 98 39023ft 391kts
09-Sep-17 16:40 33.526275 -114.298457 98 39017ft 412kts
09-Sep-17 16:41 33.517576 -114.159727 98 39017ft 431kts
09-Sep-17 16:42 33.508249 -114.013732 98 39016ft 449kts
09-Sep-17 16:43 33.498440 -113.862888 98 39011ft 458kts
09-Sep-17 16:44 33.488351 -113.710709 98 39006ft 462kts
09-Sep-17 16:45 33.478000 -113.557600 98 38978ft 466kts
09-Sep-17 16:46 33.467328 -113.402569 98 38966ft 469kts
09-Sep-17 16:47 33.462892 -113.249199 94 38962ft 473kts
09-Sep-17 16:48 33.461913 -113.092311 94 38963ft 474kts
09-Sep-17 16:49 33.460580 -112.935288 93 38965ft 474kts
09-Sep-17 16:50 33.459077 -112.778753 92 38964ft 473kts
09-Sep-17 16:51 33.457503 -112.623110 92 38962ft 471kts
09-Sep-17 16:52 33.455670 -112.468053 92 38963ft 470kts
09-Sep-17 16:53 33.453673 -112.315442 93 38961ft 470kts
09-Sep-17 16:54 33.451511 -112.165072 93 38953ft 470kts
09-Sep-17 16:55 33.449153 -112.013845 93 38953ft 470kts
09-Sep-17 16:56 33.446577 -111.860145 93 38976ft 471kts
09-Sep-17 16:57 33.443769 -111.704467 93 38983ft 471kts
09-Sep-17 16:58 33.440750 -111.547919 93 38982ft 472kts
09-Sep-17 16:59 33.437545 -111.391965 93 38983ft 472kts
09-Sep-17 17:00 33.434199 -111.238561 94 38980ft 472kts
09-Sep-17 17:01 33.430591 -111.082453 93 38982ft 472kts
09-Sep-17 17:02 33.426714 -110.925998 93 38982ft 471kts
09-Sep-17 17:03 33.422812 -110.771044 92 38980ft 469kts
09-Sep-17 17:04 33.418709 -110.616604 92 38987ft 467kts
09-Sep-17 17:05 33.414396 -110.462355 92 39176ft 463kts
09-Sep-17 17:06 33.409922 -110.309543 93 39207ft 464kts
09-Sep-17 17:07 33.405237 -110.155898 93 39054ft 467kts
09-Sep-17 17:08 33.400325 -110.001157 93 39036ft 467kts
09-Sep-17 17:09 33.395216 -109.846155 93 39036ft 467kts
09-Sep-17 17:10 33.389944 -109.692125 93 39036ft 466kts
09-Sep-17 17:11 33.384457 -109.537325 93 39037ft 466kts
09-Sep-17 17:12 33.378777 -109.382580 93 39067ft 465kts
09-Sep-17 17:13 33.373050 -109.231720 94 39185ft 463kts
09-Sep-17 17:14 33.367030 -109.078265 93 39216ft 464kts
09-Sep-17 17:15 33.360849 -108.925538 93 39215ft 465kts
09-Sep-17 17:16 33.354436 -108.770988 93 39273ft 466kts
09-Sep-17 17:17 33.348952 -108.642793 93 39290ft 466kts
09-Sep-17 17:18 33.342157 -108.487908 93 39251ft 468kts
09-Sep-17 17:19 33.334282 -108.313863 94 39246ft 468kts
09-Sep-17 17:20 33.327099 -108.159466 94 39237ft 468kts
09-Sep-17 17:21 33.320912 -108.029929 94 39231ft 469kts
09-Sep-17 17:22 33.313362 -107.875402 94 39205ft 469kts
09-Sep-17 17:23 33.305561 -107.719721 94 39174ft 470kts
09-Sep-17 17:24 33.296256 -107.538869 94 39174ft 470kts
09-Sep-17 17:25 33.289408 -107.409012 94 39174ft 469kts
09-Sep-17 17:26 33.282736 -107.256577 88 39161ft 470kts
09-Sep-17 17:27 33.287883 -107.101370 88 39172ft 470kts
09-Sep-17 17:28 33.292471 -106.945741 88 39173ft 470kts
09-Sep-17 17:29 33.296835 -106.789820 87 39175ft 470kts
09-Sep-17 17:30 33.301040 -106.635146 87 39175ft 469kts
09-Sep-17 17:31 33.305019 -106.479987 87 39175ft 469kts
09-Sep-17 17:32 33.307388 -106.326512 89 39173ft 469kts
09-Sep-17 17:33 33.311614 -106.172041 87 39194ft 468kts
09-Sep-17 17:34 33.315567 -106.017149 88 39247ft 467kts
09-Sep-17 17:35 33.318855 -105.862501 88 39354ft 466kts
09-Sep-17 17:36 33.321844 -105.708954 88 39385ft 466kts
09-Sep-17 17:37 33.324653 -105.554046 88 39385ft 467kts
09-Sep-17 17:38 33.327258 -105.399738 88 39385ft 468kts
09-Sep-17 17:39 33.329655 -105.246338 89 39383ft 468kts
09-Sep-17 17:40 33.331877 -105.091994 89 39377ft 469kts
09-Sep-17 17:41 33.333934 -104.936304 89 39255ft 472kts
09-Sep-17 17:42 33.335802 -104.779298 89 39193ft 474kts
09-Sep-17 17:43 33.338851 -104.622587 82 39177ft 474kts
09-Sep-17 17:44 33.366466 -104.469977 76 39193ft 474kts
09-Sep-17 17:45 33.395244 -104.317762 77 39191ft 474kts
09-Sep-17 17:46 33.424036 -104.164768 77 39191ft 474kts
09-Sep-17 17:47 33.452708 -104.011372 77 39192ft 474kts
09-Sep-17 17:48 33.481182 -103.857926 77 39194ft 474kts
09-Sep-17 17:49 33.509517 -103.704108 77 38257ft 470kts
09-Sep-17 17:50 33.537052 -103.553529 77 35782ft 461kts
09-Sep-17 17:51 33.563931 -103.405536 77 33302ft 452kts
09-Sep-17 17:52 33.589722 -103.262692 78 30850ft 442kts
09-Sep-17 17:53 33.614858 -103.122244 78 28378ft 431kts
09-Sep-17 17:54 33.639324 -102.984495 78 25889ft 418kts
09-Sep-17 17:55 33.662831 -102.851448 78 23412ft 405kts
09-Sep-17 17:56 33.685489 -102.722346 78 20930ft 391kts
09-Sep-17 17:57 33.707235 -102.597604 78 18446ft 377kts
09-Sep-17 17:58 33.728074 -102.477304 78 15961ft 364kts
09-Sep-17 17:59 33.748020 -102.361466 78 13475ft 350kts
09-Sep-17 18:00 33.766707 -102.252389 79 11006ft 328kts
09-Sep-17 18:01 33.783878 -102.151742 79 8828ft 289kts
09-Sep-17 18:02 33.799158 -102.062378 79 7506ft 264kts
09-Sep-17 18:03 33.813832 -101.978253 79 6208ft 257kts
09-Sep-17 18:04 33.828075 -101.897309 79 4897ft 239kts
09-Sep-17 18:05 33.839651 -101.832172 88 4554ft 159kts
09-Sep-17 18:06 33.809570 -101.821830 194 4860ft 140kts
09-Sep-17 18:07 33.769112 -101.829525 179 4923ft 163kts
09-Sep-17 18:08 33.726610 -101.829344 178 4158ft 138kts
09-Sep-17 18:09 33.691841 -101.829099 178 3520ft 124kts
09-Sep-17 18:10 33.662661 -101.828872 181 3288ft 37kts
09-Sep-17 18:11 33.660242 -101.824162 112 3288ft 14kts
09-Sep-17 18:12 33.657460 -101.822526 150 3288ft 0kts

Navigation Log

Ident Type
Flight plan parsing failed, navigation log unavailable